createdAt,value
2022-11-03T00:00:52.463Z,2.50
2022-11-03T00:03:37.990Z,1.88
2022-11-03T00:06:23.422Z,2.50
2022-11-03T00:09:11.317Z,2.58
2022-11-03T00:11:57.048Z,2.60
2022-11-03T00:14:42.261Z,2.33
2022-11-03T00:17:27.684Z,3.85
2022-11-03T00:20:13.171Z,2.60
2022-11-03T00:22:58.655Z,2.20
2022-11-03T00:25:43.939Z,2.35
2022-11-03T00:28:32.410Z,1.73
2022-11-03T00:31:26.700Z,1.80
2022-11-03T00:34:12.361Z,2.45
2022-11-03T00:36:57.611Z,2.00
2022-11-03T00:39:42.967Z,2.10
2022-11-03T00:42:28.361Z,2.58
2022-11-03T00:45:13.772Z,2.45
2022-11-03T00:48:17.592Z,1.80
2022-11-03T00:51:04.011Z,2.10
2022-11-03T00:54:00.498Z,2.20
2022-11-03T00:56:45.644Z,2.05
2022-11-03T00:59:30.984Z,1.92
2022-11-03T01:02:16.348Z,2.28
2022-11-03T01:05:20.095Z,2.20
2022-11-03T01:08:07.350Z,1.80
2022-11-03T01:11:11.074Z,2.50
2022-11-03T01:13:57.175Z,1.90
2022-11-03T01:16:42.400Z,2.10
2022-11-03T01:19:28.057Z,1.63
2022-11-03T01:22:14.758Z,1.80
2022-11-03T01:24:59.960Z,1.83
2022-11-03T01:27:45.282Z,2.50
2022-11-03T01:30:30.694Z,1.75
2022-11-03T01:33:16.042Z,2.00
2022-11-03T01:36:01.770Z,2.05
2022-11-03T01:38:47.542Z,2.13
2022-11-03T01:41:32.785Z,2.13
2022-11-03T01:44:18.177Z,1.77
2022-11-03T01:47:28.069Z,2.20
2022-11-03T01:50:19.314Z,1.95
2022-11-03T01:53:05.095Z,2.35
2022-11-03T01:55:51.775Z,1.80
2022-11-03T01:58:39.739Z,2.05
2022-11-03T02:01:25.102Z,2.20
2022-11-03T02:04:20.849Z,2.15
2022-11-03T02:07:09.942Z,1.75
2022-11-03T02:09:55.190Z,2.13
2022-11-03T02:12:40.867Z,2.08
2022-11-03T02:15:26.728Z,2.03
2022-11-03T02:18:12.968Z,2.10
2022-11-03T02:21:22.661Z,2.40
2022-11-03T02:24:53.996Z,1.88
2022-11-03T02:27:40.534Z,1.50
2022-11-03T02:30:30.382Z,2.00
2022-11-03T02:33:49.562Z,1.83
2022-11-03T02:36:49.742Z,1.67
2022-11-03T02:39:41.076Z,1.95
2022-11-03T02:42:26.635Z,1.50
2022-11-03T02:45:17.332Z,1.85
2022-11-03T02:48:04.903Z,2.10
2022-11-03T02:50:50.035Z,1.92
2022-11-03T02:53:43.215Z,2.00
2022-11-03T02:56:31.035Z,1.80
2022-11-03T02:59:23.437Z,1.70
2022-11-03T03:02:12.182Z,1.85
2022-11-03T03:05:01.995Z,1.63
2022-11-03T03:07:52.122Z,1.80
2022-11-03T03:10:44.638Z,1.65
2022-11-03T03:13:30.258Z,2.08
2022-11-03T03:16:30.642Z,1.73
2022-11-03T03:19:32.975Z,1.90
2022-11-03T03:22:36.465Z,2.25
2022-11-03T03:25:43.215Z,2.08
2022-11-03T03:28:45.749Z,1.90
2022-11-03T03:31:36.114Z,1.60
2022-11-03T03:34:33.992Z,2.22
2022-11-03T03:37:23.339Z,2.10
2022-11-03T03:40:11.553Z,2.05
2022-11-03T03:42:58.161Z,1.70
2022-11-03T03:45:44.775Z,2.45
2022-11-03T03:48:30.283Z,1.77
2022-11-03T03:51:19.736Z,2.00
2022-11-03T03:54:05.374Z,1.98
2022-11-03T03:57:02.794Z,2.20
2022-11-03T03:59:48.293Z,2.10
2022-11-03T04:02:33.701Z,1.70
2022-11-03T04:05:19.363Z,1.90
2022-11-03T04:08:05.188Z,1.63
2022-11-03T04:11:09.322Z,1.77
2022-11-03T04:14:13.259Z,1.83
2022-11-03T04:17:17.473Z,2.05
2022-11-03T04:20:21.847Z,2.30
2022-11-03T04:23:07.318Z,2.00
2022-11-03T04:25:54.770Z,1.90
2022-11-03T04:28:41.124Z,2.10
2022-11-03T04:31:28.379Z,2.22
2022-11-03T04:34:13.639Z,2.20
2022-11-03T04:36:59.430Z,1.75
2022-11-03T04:42:35.409Z,1.70
2022-11-03T04:45:31.458Z,1.80
2022-11-03T04:48:22.744Z,2.35
2022-11-03T04:51:19.910Z,2.25
2022-11-03T04:54:15.302Z,1.85
2022-11-03T04:57:08.576Z,2.03
2022-11-03T04:59:53.739Z,1.60
2022-11-03T05:02:39.148Z,2.08
2022-11-03T05:05:26.507Z,2.42
2022-11-03T05:08:12.735Z,2.17
2022-11-03T05:11:00.186Z,1.85
2022-11-03T05:13:45.676Z,1.90
2022-11-03T05:16:31.682Z,2.20
2022-11-03T05:19:25.899Z,2.03
2022-11-03T05:22:22.864Z,1.65
2022-11-03T05:25:30.436Z,2.10
2022-11-03T05:28:35.527Z,1.90
2022-11-03T05:31:32.254Z,1.60
2022-11-03T05:34:29.890Z,1.90
2022-11-03T05:37:35.228Z,2.08
2022-11-03T05:40:25.830Z,2.20
2022-11-03T05:43:14.456Z,1.80
2022-11-03T05:46:02.963Z,1.65
2022-11-03T05:48:49.435Z,2.03
2022-11-03T05:51:41.914Z,2.25
2022-11-03T05:57:15.077Z,1.73
2022-11-03T06:00:01.096Z,1.90
2022-11-03T06:02:49.027Z,2.08
2022-11-03T06:05:34.499Z,2.10
2022-11-03T06:08:26.491Z,2.40
2022-11-03T06:11:21.132Z,2.30
2022-11-03T06:14:18.636Z,1.90
2022-11-03T06:17:28.592Z,1.52
2022-11-03T06:20:19.505Z,1.80
2022-11-03T06:23:12.263Z,2.10
2022-11-03T06:25:57.601Z,1.70
2022-11-03T06:28:42.856Z,1.60
2022-11-03T06:31:30.359Z,2.00
2022-11-03T06:34:43.687Z,1.55
2022-11-03T06:37:33.164Z,1.75
2022-11-03T06:40:18.313Z,1.65
2022-11-03T06:43:18.256Z,2.15
2022-11-03T06:46:19.829Z,1.63
2022-11-03T06:49:25.665Z,2.17
2022-11-03T06:52:20.728Z,1.83
2022-11-03T06:55:13.913Z,2.03
2022-11-03T06:58:32.656Z,1.80
2022-11-03T07:01:24.952Z,1.90
2022-11-03T07:04:18.662Z,1.95
2022-11-03T07:07:03.964Z,1.95
2022-11-03T07:09:50.019Z,1.90
2022-11-03T07:12:35.206Z,2.13
2022-11-03T07:15:32.152Z,2.00
2022-11-03T07:18:29.800Z,1.70
2022-11-03T07:21:48.607Z,2.05
2022-11-03T07:24:38.462Z,2.20
2022-11-03T07:27:23.508Z,2.58
2022-11-03T07:30:18.212Z,1.77
2022-11-03T07:33:15.297Z,2.17
2022-11-03T07:36:16.964Z,1.90
2022-11-03T07:39:03.111Z,2.05
2022-11-03T07:41:48.935Z,1.77
2022-11-03T07:44:34.674Z,1.60
2022-11-03T07:47:25.952Z,1.90
2022-11-03T07:50:15.610Z,2.08
2022-11-03T07:53:00.983Z,2.10
2022-11-03T07:55:46.938Z,1.98
2022-11-03T07:58:40.037Z,2.20
2022-11-03T08:01:37.852Z,1.90
2022-11-03T08:04:27.275Z,1.88
2022-11-03T08:07:12.865Z,1.70
2022-11-03T08:09:58.667Z,2.08
2022-11-03T08:12:43.541Z,1.98
2022-11-03T08:15:29.150Z,1.80
2022-11-03T08:18:14.431Z,1.95
2022-11-03T08:20:59.775Z,2.00
2022-11-03T08:23:47.552Z,1.88
2022-11-03T08:26:33.005Z,1.80
2022-11-03T08:29:18.803Z,2.58
2022-11-03T08:32:04.226Z,2.17
2022-11-03T08:34:49.251Z,2.30
2022-11-03T08:37:34.755Z,2.13
2022-11-03T08:40:20.081Z,1.92
2022-11-03T08:43:06.613Z,1.92
2022-11-03T08:45:53.672Z,1.63
2022-11-03T08:48:39.091Z,1.80
2022-11-03T08:51:24.833Z,1.85
2022-11-03T08:54:10.019Z,2.15
2022-11-03T08:56:55.475Z,2.05
2022-11-03T08:59:40.927Z,1.77
2022-11-03T09:02:26.373Z,1.88
2022-11-03T09:05:12.843Z,2.25
2022-11-03T09:11:03.709Z,1.95
2022-11-03T09:13:49.521Z,2.28
2022-11-03T09:16:35.243Z,2.08
2022-11-03T09:19:20.748Z,1.88
2022-11-03T09:22:06.534Z,2.05
2022-11-03T09:24:51.756Z,1.90
2022-11-03T09:27:37.325Z,2.03
2022-11-03T09:30:22.960Z,2.10
2022-11-03T09:33:08.105Z,1.80
2022-11-03T09:35:53.420Z,2.35
2022-11-03T09:38:38.738Z,2.13
2022-11-03T09:41:29.179Z,1.55
2022-11-03T09:44:33.552Z,1.83
2022-11-03T09:47:29.347Z,1.58
2022-11-03T09:50:20.109Z,1.90
2022-11-03T09:53:06.221Z,1.50
2022-11-03T09:55:51.826Z,2.20
2022-11-03T09:58:37.268Z,1.80
2022-11-03T10:01:23.708Z,2.00
2022-11-03T10:04:10.454Z,1.92
2022-11-03T10:06:59.141Z,1.85
2022-11-03T10:09:48.031Z,1.63
2022-11-03T10:12:36.806Z,1.92
2022-11-03T10:15:23.591Z,1.85
2022-11-03T10:18:09.995Z,1.27
2022-11-03T10:20:55.735Z,1.70
2022-11-03T10:23:40.786Z,1.83
2022-11-03T10:26:26.372Z,1.52
2022-11-03T10:29:24.466Z,1.30
2022-11-03T10:32:29.299Z,1.58
2022-11-03T10:35:47.166Z,1.98
2022-11-03T10:38:35.018Z,2.40
2022-11-03T10:41:29.044Z,1.73
2022-11-03T10:44:19.637Z,1.70
2022-11-03T10:47:06.909Z,1.90
2022-11-03T10:49:54.950Z,2.10
2022-11-03T10:52:40.192Z,1.80
2022-11-03T10:55:26.847Z,1.98
2022-11-03T10:58:12.316Z,1.85
2022-11-03T11:00:57.626Z,1.50
2022-11-03T11:03:44.675Z,1.98
2022-11-03T11:06:30.908Z,1.90
2022-11-03T11:09:23.479Z,2.15
2022-11-03T11:12:25.378Z,1.35
2022-11-03T11:15:40.388Z,1.80
2022-11-03T11:18:28.766Z,1.90
2022-11-03T11:21:17.639Z,1.85
2022-11-03T11:24:02.795Z,1.70
2022-11-03T11:26:50.685Z,1.55
2022-11-03T11:29:36.216Z,1.80
2022-11-03T11:32:44.675Z,1.35
2022-11-03T11:35:29.862Z,1.83
2022-11-03T11:38:49.406Z,1.40
2022-11-03T11:42:05.537Z,2.03
2022-11-03T11:44:57.618Z,1.75
2022-11-03T11:50:36.009Z,1.40
2022-11-03T11:53:26.297Z,1.50
2022-11-03T11:56:16.567Z,1.48
2022-11-03T11:59:02.737Z,1.20
2022-11-03T12:01:53.527Z,1.58
2022-11-03T12:04:39.206Z,1.50
2022-11-03T12:07:35.566Z,1.30
2022-11-03T12:10:28.226Z,1.40
2022-11-03T12:13:39.509Z,2.05
2022-11-03T12:16:36.038Z,1.50
2022-11-03T12:19:35.541Z,1.45
2022-11-03T12:22:24.279Z,1.42
2022-11-03T12:25:40.137Z,1.50
2022-11-03T12:28:36.381Z,1.67
2022-11-03T12:31:21.919Z,1.52
2022-11-03T12:34:07.024Z,1.65
2022-11-03T12:36:56.137Z,1.70
2022-11-03T12:39:42.003Z,1.40
2022-11-03T12:42:27.656Z,1.27
2022-11-03T12:45:13.634Z,1.63
2022-11-03T12:47:59.273Z,1.50
2022-11-03T12:50:44.794Z,1.23
2022-11-03T12:53:30.387Z,1.45
2022-11-03T12:56:17.226Z,1.40
2022-11-03T12:59:02.572Z,1.50
2022-11-03T13:01:48.106Z,1.67
2022-11-03T13:04:33.632Z,1.42
2022-11-03T13:07:25.647Z,1.30
2022-11-03T13:10:13.758Z,1.20
2022-11-03T13:12:59.006Z,1.60
2022-11-03T13:15:44.971Z,1.27
2022-11-03T13:18:30.479Z,1.60
2022-11-03T13:21:15.929Z,1.55
2022-11-03T13:24:01.625Z,1.25
2022-11-03T13:26:46.910Z,1.67
2022-11-03T13:29:35.370Z,1.10
2022-11-03T13:32:21.490Z,1.25
2022-11-03T13:35:13.768Z,1.50
2022-11-03T13:37:59.762Z,1.13
2022-11-03T13:41:06.940Z,1.50
2022-11-03T13:43:50.754Z,1.10
2022-11-03T13:46:36.410Z,1.30
2022-11-03T13:49:59.361Z,1.08
2022-11-03T13:52:28.504Z,1.45
2022-11-03T14:01:25.411Z,1.63
2022-11-03T14:07:15.986Z,1.30
2022-11-03T14:10:03.844Z,1.52
2022-11-03T14:12:49.794Z,1.27
2022-11-03T14:15:35.295Z,1.50
2022-11-03T14:18:20.919Z,1.17
2022-11-03T14:21:06.390Z,1.35
2022-11-03T14:23:51.887Z,1.10
2022-11-03T14:26:42.822Z,1.58
2022-11-03T14:29:28.756Z,1.05
2022-11-03T14:32:14.306Z,1.30
2022-11-03T14:34:59.815Z,1.30
2022-11-03T14:37:44.923Z,1.30
2022-11-03T14:40:48.875Z,1.10
2022-11-03T14:43:35.269Z,1.23
2022-11-03T14:46:20.866Z,1.20
2022-11-03T14:49:06.219Z,1.02
2022-11-03T14:51:51.692Z,1.05
2022-11-03T14:54:37.174Z,1.23
2022-11-03T14:57:23.082Z,1.30
2022-11-03T15:00:10.279Z,1.40
2022-11-03T15:02:56.010Z,0.90
2022-11-03T15:05:44.052Z,1.30
2022-11-03T15:08:30.890Z,1.27
2022-11-03T15:11:16.263Z,1.33
2022-11-03T15:14:02.703Z,1.30
2022-11-03T15:16:48.341Z,1.20
2022-11-03T15:19:33.911Z,1.48
2022-11-03T15:22:19.536Z,1.20
2022-11-03T15:25:12.585Z,1.40
2022-11-03T15:27:57.771Z,1.52
2022-11-03T15:30:43.261Z,1.20
2022-11-03T15:33:28.882Z,1.38
2022-11-03T15:36:14.008Z,1.50
2022-11-03T15:38:59.279Z,1.30
2022-11-03T15:41:44.665Z,1.30
2022-11-03T15:44:29.968Z,1.65
2022-11-03T15:47:15.476Z,1.10
2022-11-03T15:50:00.986Z,1.17
2022-11-03T15:52:46.476Z,1.58
2022-11-03T15:55:31.751Z,1.50
2022-11-03T15:58:17.250Z,1.20
2022-11-03T16:01:03.279Z,1.30
2022-11-03T16:03:48.997Z,1.30
2022-11-03T16:07:01.686Z,1.40
2022-11-03T16:09:39.634Z,1.40
2022-11-03T16:12:25.753Z,1.40
2022-11-03T16:15:12.127Z,1.50
2022-11-03T16:18:02.451Z,1.17
2022-11-03T16:20:47.718Z,1.63
2022-11-03T16:23:33.076Z,1.45
2022-11-03T16:26:21.804Z,1.23
2022-11-03T16:29:07.196Z,1.60
2022-11-03T16:31:53.435Z,1.73
2022-11-03T16:34:38.722Z,1.67
2022-11-03T16:37:27.448Z,1.35
2022-11-03T16:40:17.955Z,1.60
2022-11-03T16:43:05.752Z,1.45
2022-11-03T16:45:51.222Z,1.33
2022-11-03T16:48:36.402Z,1.70
2022-11-03T16:51:22.281Z,2.03
2022-11-03T16:54:07.487Z,2.10
2022-11-03T16:56:54.832Z,1.70
2022-11-03T16:59:40.910Z,2.03
2022-11-03T17:02:27.886Z,2.03
2022-11-03T17:05:15.501Z,2.35
2022-11-03T17:08:00.874Z,1.88
2022-11-03T17:10:46.379Z,1.90
2022-11-03T17:13:31.687Z,2.15
2022-11-03T17:16:17.280Z,2.25
2022-11-03T17:19:02.971Z,2.10
2022-11-03T17:21:48.610Z,2.00
2022-11-03T17:24:33.614Z,1.92
2022-11-03T17:27:45.322Z,2.72
2022-11-03T17:30:34.180Z,2.15
2022-11-03T17:33:19.621Z,2.20
2022-11-03T17:36:05.093Z,1.92
2022-11-03T17:38:50.729Z,2.20
2022-11-03T17:41:36.603Z,2.60
2022-11-03T17:44:21.944Z,2.50
2022-11-03T17:47:07.747Z,2.20
2022-11-03T17:49:52.973Z,2.38
2022-11-03T17:52:38.456Z,2.15
2022-11-03T17:55:29.172Z,2.75
2022-11-03T17:58:15.232Z,2.20
2022-11-03T18:01:01.814Z,2.33
2022-11-03T18:03:47.493Z,2.20
2022-11-03T18:06:32.981Z,2.50
2022-11-03T18:09:18.384Z,2.40
2022-11-03T18:12:22.422Z,2.67
2022-11-03T18:15:15.709Z,2.67
2022-11-03T18:18:08.960Z,2.47
2022-11-03T18:20:54.745Z,2.88
2022-11-03T18:23:40.487Z,2.90
2022-11-03T18:26:26.642Z,2.47
2022-11-03T18:29:12.079Z,2.47
2022-11-03T18:31:58.736Z,2.65
2022-11-03T18:34:44.348Z,2.42
2022-11-03T18:37:32.187Z,2.60
2022-11-03T18:40:20.118Z,3.15
2022-11-03T18:43:12.663Z,2.50
2022-11-03T18:45:58.225Z,2.80
2022-11-03T18:48:43.656Z,2.80
2022-11-03T18:51:28.880Z,2.75
2022-11-03T18:57:11.090Z,3.45
2022-11-03T18:59:57.541Z,3.60
2022-11-03T19:02:43.194Z,3.33
2022-11-03T19:05:29.732Z,4.38
2022-11-03T19:08:22.123Z,3.63
2022-11-03T19:11:07.677Z,3.10
2022-11-03T19:13:53.270Z,3.58
2022-11-03T19:16:45.844Z,3.38
2022-11-03T19:19:40.965Z,3.15
2022-11-03T19:22:26.307Z,3.88
2022-11-03T19:25:12.224Z,3.90
2022-11-03T19:27:58.081Z,3.45
2022-11-03T19:30:44.057Z,3.53
2022-11-03T19:33:31.049Z,3.83
2022-11-03T19:36:16.764Z,3.83
2022-11-03T19:39:02.527Z,3.60
2022-11-03T19:42:06.355Z,3.63
2022-11-03T19:44:52.917Z,4.45
2022-11-03T19:48:18.198Z,4.18
2022-11-03T19:50:56.168Z,4.18
2022-11-03T19:53:46.856Z,4.30
2022-11-03T19:56:32.651Z,4.07
2022-11-03T19:59:18.479Z,4.35
2022-11-03T20:02:04.339Z,4.28
2022-11-03T20:04:50.410Z,4.50
2022-11-03T20:07:35.845Z,3.92
2022-11-03T20:10:21.362Z,4.07
2022-11-03T20:13:12.487Z,4.47
2022-11-03T20:16:01.071Z,4.05
2022-11-03T20:18:48.252Z,4.43
2022-11-03T20:21:34.556Z,4.22
2022-11-03T20:24:20.303Z,4.90
2022-11-03T20:27:05.716Z,4.80
2022-11-03T20:29:51.356Z,4.95
2022-11-03T20:32:36.615Z,4.97
2022-11-03T20:35:25.693Z,5.45
2022-11-03T20:38:13.215Z,5.28
2022-11-03T20:41:03.171Z,5.50
2022-11-03T20:43:49.610Z,5.65
2022-11-03T20:46:35.282Z,4.97
2022-11-03T20:49:21.583Z,5.00
2022-11-03T20:52:13.226Z,5.32
2022-11-03T20:54:58.469Z,5.03
2022-11-03T20:57:44.836Z,4.30
2022-11-03T21:00:31.648Z,3.70
2022-11-03T21:03:44.960Z,3.30
2022-11-03T21:06:32.528Z,3.10
2022-11-03T21:09:19.416Z,2.33
2022-11-03T21:12:05.413Z,1.50
2022-11-03T21:15:09.443Z,1.45
2022-11-03T21:18:13.685Z,0.90
2022-11-03T21:21:00.085Z,0.82
2022-11-03T21:23:45.567Z,0.88
2022-11-03T21:26:31.370Z,0.50
2022-11-03T21:29:23.164Z,0.70
2022-11-03T21:32:18.675Z,0.50
2022-11-03T21:35:08.138Z,0.57
2022-11-03T21:37:53.639Z,0.88
2022-11-03T21:40:56.149Z,0.60
2022-11-03T21:44:00.423Z,0.60
2022-11-03T21:46:46.875Z,0.52
2022-11-03T21:49:50.427Z,0.65
2022-11-03T21:52:35.724Z,0.60
2022-11-03T21:55:21.032Z,0.70
2022-11-03T21:58:06.351Z,0.60
2022-11-03T22:00:51.760Z,0.77
2022-11-03T22:03:38.772Z,1.00
2022-11-03T22:06:24.316Z,0.80
2022-11-03T22:09:10.717Z,0.75
2022-11-03T22:11:56.020Z,0.98
2022-11-03T22:15:00.110Z,0.90
2022-11-03T22:17:46.124Z,0.88
2022-11-03T22:20:49.903Z,0.77
2022-11-03T22:23:53.906Z,0.80
2022-11-03T22:26:57.698Z,0.95
2022-11-03T22:30:01.906Z,0.90
2022-11-03T22:32:55.375Z,0.88
2022-11-03T22:35:59.228Z,0.68
2022-11-03T22:39:03.608Z,0.90
2022-11-03T22:42:21.119Z,0.80
2022-11-03T22:45:36.120Z,0.80
2022-11-03T22:48:26.276Z,0.98
2022-11-03T22:51:14.611Z,0.95
2022-11-03T22:54:12.105Z,1.20
2022-11-03T22:56:57.448Z,1.20
2022-11-03T22:59:42.834Z,1.10
2022-11-03T23:02:28.621Z,0.88
2022-11-03T23:05:14.040Z,0.73
2022-11-03T23:07:59.503Z,0.82
2022-11-03T23:10:44.923Z,0.77
2022-11-03T23:13:30.366Z,0.90
2022-11-03T23:16:18.823Z,0.80
2022-11-03T23:19:24.291Z,0.70
2022-11-03T23:22:09.640Z,0.88
2022-11-03T23:25:00.936Z,0.80
2022-11-03T23:27:45.991Z,0.60
2022-11-03T23:30:31.506Z,0.45
2022-11-03T23:33:16.748Z,0.60
2022-11-03T23:36:09.907Z,0.60
2022-11-03T23:38:57.101Z,0.60
2022-11-03T23:41:43.782Z,0.70
2022-11-03T23:44:51.574Z,0.60
2022-11-03T23:47:55.827Z,0.90
2022-11-03T23:50:43.495Z,0.60
2022-11-03T23:53:28.852Z,0.70
2022-11-03T23:56:35.139Z,1.00
2022-11-03T23:59:20.879Z,0.80
